Time;durP1;ratioP1;P1;durP2;ratioP2;P2;SDS_P1;SDS_P2;PMS_P1;PMS_P2;Temp;Humidity;BMP_temperature;BMP_pressure;BME280_temperature;BME280_humidity;BME280_pressure;Samples;Min_cycle;Max_cycle;Signal;HPM_P1;HPM_P2
2023/01/30 00:00:41;;;;;;;14.37;9.53;;;;;;;-1.18;67.80;98168.81;6253504;28;20234;-38
2023/01/30 00:03:46;;;;;;;13.63;9.00;;;;;;;-1.27;66.82;98146.25;6252345;28;20603;-37
2023/01/30 00:06:49;;;;;;;13.50;9.60;;;;;;;-1.58;67.85;98117.97;6251220;28;20569;-37
2023/01/30 00:09:52;;;;;;;13.83;9.10;;;;;;;-1.27;67.90;98157.53;6108115;28;20702;-37
2023/01/30 00:12:54;;;;;;;13.13;8.87;;;;;;;-1.26;67.63;98153.13;6248916;28;20239;-38
2023/01/30 00:15:56;;;;;;;14.00;9.87;;;;;;;-1.33;68.03;98153.75;6249062;28;20227;-38
2023/01/30 00:18:58;;;;;;;16.13;10.77;;;;;;;-1.44;68.64;98151.38;6253103;28;20723;-37
2023/01/30 00:22:00;;;;;;;14.97;10.43;;;;;;;-1.37;68.89;98138.53;6253228;28;20325;-37
2023/01/30 00:25:02;;;;;;;14.57;9.73;;;;;;;-1.30;68.59;98137.72;6249974;28;20313;-38
2023/01/30 00:28:05;;;;;;;13.80;9.67;;;;;;;-1.23;68.43;98137.09;6250688;28;20235;-38
2023/01/30 00:31:08;;;;;;;14.67;10.27;;;;;;;-1.15;68.08;98134.53;6254170;28;20322;-38
2023/01/30 00:34:10;;;;;;;17.20;10.40;;;;;;;-1.13;68.18;98130.00;6249024;28;20245;-38
2023/01/30 00:37:13;;;;;;;15.40;10.63;;;;;;;-1.11;68.08;98128.84;6251757;28;20247;-37
2023/01/30 00:40:15;;;;;;;16.30;10.60;;;;;;;-1.09;68.19;98110.38;6253505;28;20241;-38
2023/01/30 00:50:20;;;;;;;14.93;10.00;;;;;;;-1.12;68.04;98106.28;6200777;28;20373;-37
2023/01/30 00:53:23;;;;;;;15.47;9.63;;;;;;;-1.14;67.84;98110.03;6200635;28;20264;-38
2023/01/30 00:56:25;;;;;;;13.63;8.73;;;;;;;-1.16;67.45;98097.13;6183998;28;20225;-38
2023/01/30 00:59:28;;;;;;;16.10;10.00;;;;;;;-1.15;67.49;98098.75;6200276;28;20315;-38
2023/01/30 01:02:30;;;;;;;16.97;10.00;;;;;;;-1.10;67.62;98087.84;6199430;28;20228;-38
2023/01/30 01:05:33;;;;;;;15.60;10.67;;;;;;;-1.05;67.39;98090.78;6200920;28;20236;-38
2023/01/30 01:08:35;;;;;;;16.57;11.47;;;;;;;-1.07;67.61;98077.06;6202527;28;20224;-38
2023/01/30 01:11:37;;;;;;;16.43;11.03;;;;;;;-1.05;67.61;98067.25;6199750;28;20604;-38
2023/01/30 01:14:40;;;;;;;15.27;10.57;;;;;;;-1.11;67.60;98066.09;6200592;28;20247;-37
2023/01/30 01:17:43;;;;;;;14.87;10.63;;;;;;;-1.02;67.38;98051.25;6199190;28;20220;-38
2023/01/30 01:20:45;;;;;;;16.23;10.90;;;;;;;-1.02;67.15;98053.06;6225958;28;20241;-37
2023/01/30 01:23:52;;;;;;;18.07;11.23;;;;;;;-1.06;67.36;98045.53;6245731;28;20230;-38
2023/01/30 01:26:54;;;;;;;17.07;11.10;;;;;;;-1.05;67.33;98033.28;6234274;28;20681;-37
2023/01/30 01:29:57;;;;;;;18.47;10.93;;;;;;;-0.97;66.80;98035.09;6239422;28;20714;-38
2023/01/30 01:33:02;;;;;;;14.30;9.53;;;;;;;-1.10;67.03;98031.13;6251677;28;20593;-37
2023/01/30 01:36:05;;;;;;;17.77;10.97;;;;;;;-1.00;66.87;98032.78;6249569;28;20572;-38
2023/01/30 01:39:07;;;;;;;13.03;9.37;;;;;;;-0.96;67.08;98028.88;6251748;28;20328;-38
2023/01/30 01:42:10;;;;;;;14.90;9.87;;;;;;;-0.93;66.91;98032.00;6252208;28;20752;-38
2023/01/30 01:45:17;;;;;;;15.17;10.43;;;;;;;-0.94;66.59;98025.13;6251309;28;20235;-38
2023/01/30 01:48:31;;;;;;;14.00;9.73;;;;;;;-0.93;66.48;98013.69;6250625;28;21203;-38
2023/01/30 01:52:02;;;;;;;15.90;9.77;;;;;;;-0.94;66.33;98024.31;6248214;28;20227;-38
2023/01/30 01:55:06;;;;;;;23.33;9.70;;;;;;;-0.95;66.62;98023.50;6247832;28;20238;-38
2023/01/30 01:58:23;;;;;;;13.60;9.47;;;;;;;-1.01;66.46;98005.84;6246916;28;20267;-38
2023/01/30 02:01:26;;;;;;;12.90;9.37;;;;;;;-0.97;66.60;98011.56;6252608;28;20259;-38
2023/01/30 02:08:03;;;;;;;13.77;9.57;;;;;;;-1.01;66.91;97999.78;6242522;28;20266;-38
2023/01/30 02:11:33;;;;;;;15.03;9.77;;;;;;;-1.05;67.07;97994.88;6247735;28;20368;-38
2023/01/30 02:14:39;;;;;;;14.63;9.57;;;;;;;-1.04;67.13;97995.69;6243500;28;20261;-38
2023/01/30 02:17:41;;;;;;;14.53;9.37;;;;;;;-1.08;67.02;97989.97;6255664;28;20272;-38
2023/01/30 02:21:16;;;;;;;13.10;8.30;;;;;;;-1.04;66.99;97990.47;6256160;28;20310;-37
2023/01/30 02:24:55;;;;;;;13.33;9.23;;;;;;;-1.06;67.07;97981.97;6252338;28;20804;-37
2023/01/30 02:28:19;;;;;;;11.83;8.43;;;;;;;-1.00;66.48;97972.66;6260244;28;20314;-38
2023/01/30 02:31:30;;;;;;;13.30;9.70;;;;;;;-1.02;66.35;97964.97;6266297;28;20722;-38
2023/01/30 02:35:00;;;;;;;14.33;9.13;;;;;;;-1.17;66.66;97963.97;6254833;28;20233;-38
2023/01/30 02:38:18;;;;;;;13.90;8.77;;;;;;;-1.22;67.01;97963.66;6264481;28;20604;-37
2023/01/30 02:41:23;;;;;;;11.57;7.53;;;;;;;-1.20;67.23;97967.72;6252492;28;20365;-37
2023/01/30 02:44:36;;;;;;;12.67;8.13;;;;;;;-1.29;66.75;97958.22;6250672;28;20228;-38
2023/01/30 02:47:48;;;;;;;14.07;9.50;;;;;;;-1.44;66.63;97944.94;6252132;28;20227;-38
2023/01/30 02:51:00;;;;;;;13.20;9.13;;;;;;;-1.60;67.16;97956.19;6261756;28;20365;-38
2023/01/30 02:54:06;;;;;;;12.53;8.67;;;;;;;-1.74;67.34;97938.50;6254289;28;20239;-37
2023/01/30 02:57:20;;;;;;;14.03;9.03;;;;;;;-1.84;67.53;97929.97;6254144;28;20697;-38
2023/01/30 03:00:47;;;;;;;11.17;7.53;;;;;;;-2.00;67.70;97927.28;6247369;28;20252;-38
2023/01/30 03:04:17;;;;;;;12.07;7.70;;;;;;;-2.02;68.41;97924.84;6250719;28;20309;-38
2023/01/30 03:08:04;;;;;;;11.90;7.63;;;;;;;-2.02;68.44;97917.03;6250709;28;20787;-38
2023/01/30 03:11:08;;;;;;;12.23;7.83;;;;;;;-2.09;67.79;97905.56;6239988;28;20238;-37
2023/01/30 03:14:18;;;;;;;14.17;9.17;;;;;;;-2.19;68.27;97902.25;6242827;28;20235;-38
2023/01/30 03:17:23;;;;;;;11.27;7.30;;;;;;;-2.17;68.41;97905.50;6253059;28;20226;-39
2023/01/30 03:20:26;;;;;;;13.77;8.13;;;;;;;-2.56;66.32;97868.59;6249255;28;20745;-39
2023/01/30 03:23:28;;;;;;;9.63;7.20;;;;;;;-2.62;66.59;97907.38;6253954;28;20249;-38
2023/01/30 03:26:33;;;;;;;12.30;7.83;;;;;;;-2.75;66.17;97904.34;6241356;28;20316;-39
2023/01/30 03:29:37;;;;;;;12.80;8.10;;;;;;;-2.90;66.12;97904.09;6238330;28;20325;-39
2023/01/30 03:32:40;;;;;;;10.43;7.43;;;;;;;-3.09;66.18;97908.66;6252198;28;20234;-39
2023/01/30 03:35:42;;;;;;;12.17;7.73;;;;;;;-3.49;65.65;97886.47;6240223;28;20231;-39
2023/01/30 03:38:46;;;;;;;12.33;7.60;;;;;;;-3.47;66.33;97895.75;6252807;28;20251;-39
2023/01/30 03:41:52;;;;;;;14.63;7.50;;;;;;;-3.53;67.33;97896.34;6255198;28;20239;-39
2023/01/30 03:44:55;;;;;;;11.30;8.03;;;;;;;-3.53;67.31;97878.13;6251699;28;20597;-39
2023/01/30 03:47:57;;;;;;;10.80;7.10;;;;;;;-3.69;67.09;97891.00;6251731;28;20271;-39
2023/01/30 03:51:00;;;;;;;10.63;6.53;;;;;;;-3.76;67.42;97877.72;6251481;28;20234;-37
2023/01/30 03:54:03;;;;;;;13.30;8.30;;;;;;;-3.80;67.22;97870.34;6261851;28;20239;-37
2023/01/30 03:57:05;;;;;;;12.63;8.67;;;;;;;-4.09;69.49;97849.69;6252007;28;20664;-37
2023/01/30 04:00:08;;;;;;;13.27;7.70;;;;;;;-4.01;68.63;97862.81;6251838;28;20211;-38
2023/01/30 04:03:16;;;;;;;12.33;7.83;;;;;;;-4.18;68.47;97869.63;6250140;28;20208;-37
2023/01/30 04:06:19;;;;;;;11.83;7.13;;;;;;;-4.41;68.75;97820.56;6251994;28;20234;-37
2023/01/30 04:09:21;;;;;;;12.53;7.10;;;;;;;-4.41;68.67;97861.34;6234827;28;20254;-38
2023/01/30 04:12:25;;;;;;;14.40;8.43;;;;;;;-4.48;68.76;97853.31;6248603;28;20234;-38
2023/01/30 04:15:31;;;;;;;12.47;7.30;;;;;;;-4.64;69.03;97834.06;6240679;28;20230;-37
2023/01/30 04:19:05;;;;;;;11.47;7.73;;;;;;;-4.73;69.56;97835.75;6249003;28;20253;-37
2023/01/30 04:22:09;;;;;;;11.70;7.30;;;;;;;-4.83;70.29;97819.38;6253159;28;20242;-37
2023/01/30 04:25:11;;;;;;;12.53;8.17;;;;;;;-4.72;70.48;97834.81;6252342;28;20322;-38
2023/01/30 04:28:13;;;;;;;13.70;8.13;;;;;;;-4.70;70.38;97832.88;6234422;28;20243;-37
2023/01/30 04:31:17;;;;;;;14.97;8.50;;;;;;;-4.72;70.57;97822.63;6252581;28;20369;-37
2023/01/30 04:34:51;;;;;;;13.53;7.90;;;;;;;-4.90;70.64;97811.31;6234256;28;20238;-38
2023/01/30 04:37:53;;;;;;;11.77;7.93;;;;;;;-4.81;71.24;97825.25;6250965;28;20322;-38
2023/01/30 04:40:57;;;;;;;10.73;7.77;;;;;;;-4.85;71.27;97836.88;6243325;28;20708;-37
2023/01/30 04:44:03;;;;;;;14.67;7.37;;;;;;;-4.84;71.22;97828.13;6224202;28;20247;-37
2023/01/30 04:47:23;;;;;;;12.03;7.13;;;;;;;-4.80;72.07;97834.69;6250096;28;20227;-37
2023/01/30 04:50:25;;;;;;;11.87;7.17;;;;;;;-4.72;72.04;97829.59;6226905;28;20233;-37
2023/01/30 04:53:27;;;;;;;11.13;7.07;;;;;;;-4.57;72.18;97829.97;6253115;28;21105;-37
2023/01/30 04:56:29;;;;;;;21.03;11.37;;;;;;;-4.51;72.13;97834.59;6253461;28;20237;-37
2023/01/30 04:59:32;;;;;;;11.43;7.00;;;;;;;-4.45;71.80;97837.41;6251366;28;20772;-38
2023/01/30 05:02:37;;;;;;;11.67;6.77;;;;;;;-4.37;71.44;97831.50;6248579;28;20234;-38
2023/01/30 05:05:40;;;;;;;10.97;7.40;;;;;;;-4.29;71.55;97831.59;6252239;28;20238;-38
2023/01/30 05:08:42;;;;;;;8.03;5.73;;;;;;;-4.18;71.58;97817.59;6252367;28;20237;-38
2023/01/30 05:11:47;;;;;;;12.83;7.50;;;;;;;-4.16;70.91;97819.06;6252610;28;20528;-37
2023/01/30 05:14:49;;;;;;;12.27;6.13;;;;;;;-4.13;70.98;97812.78;6252173;28;20594;-37
2023/01/30 05:17:52;;;;;;;12.10;7.13;;;;;;;-4.28;71.32;97811.63;6252367;28;20266;-37
2023/01/30 05:21:15;;;;;;;11.40;6.87;;;;;;;-4.25;71.74;97804.34;6250035;28;20323;-37
2023/01/30 05:24:20;;;;;;;11.07;6.53;;;;;;;-4.15;71.87;97801.69;6257773;28;20304;-37
2023/01/30 05:27:23;;;;;;;10.20;6.17;;;;;;;-4.10;71.50;97794.25;6252526;28;20235;-37
2023/01/30 05:30:27;;;;;;;9.00;6.03;;;;;;;-4.13;72.11;97785.94;6248351;28;20229;-37
2023/01/30 05:33:29;;;;;;;10.57;6.00;;;;;;;-4.01;72.20;97782.16;6256126;28;20227;-37
2023/01/30 05:36:31;;;;;;;9.07;5.90;;;;;;;-3.92;72.21;97776.88;6253288;28;20231;-37
2023/01/30 05:39:36;;;;;;;10.87;6.33;;;;;;;-3.77;72.26;97761.56;6256869;28;20714;-37
2023/01/30 05:42:38;;;;;;;10.40;6.47;;;;;;;-3.79;72.00;97779.13;6257377;28;20230;-37
2023/01/30 05:45:40;;;;;;;11.23;6.77;;;;;;;-3.82;72.42;97758.59;6256613;28;20600;-37
2023/01/30 05:48:43;;;;;;;9.50;6.10;;;;;;;-3.70;72.54;97753.97;6257391;28;20260;-39
2023/01/30 05:51:45;;;;;;;11.53;6.70;;;;;;;-3.67;72.90;97759.72;6257042;28;20231;-37
2023/01/30 05:54:51;;;;;;;9.97;6.77;;;;;;;-3.83;73.31;97737.94;6249415;28;20243;-37
2023/01/30 05:57:53;;;;;;;13.23;6.40;;;;;;;-3.54;73.15;97767.16;6256165;28;20234;-37
2023/01/30 06:01:03;;;;;;;10.20;6.43;;;;;;;-3.35;72.94;97786.13;6255227;28;20241;-37
2023/01/30 06:04:05;;;;;;;8.27;5.20;;;;;;;-3.27;72.88;97786.22;6252307;28;20238;-37
2023/01/30 06:07:07;;;;;;;13.20;7.40;;;;;;;-3.16;72.86;97791.16;6256541;28;20361;-37
2023/01/30 06:10:10;;;;;;;9.27;6.30;;;;;;;-3.09;72.84;97771.38;6252272;28;20280;-37
2023/01/30 06:13:12;;;;;;;12.20;7.73;;;;;;;-2.92;73.26;97767.88;6250817;28;20380;-37
2023/01/30 06:16:17;;;;;;;13.43;8.23;;;;;;;-2.51;72.46;97749.81;6251877;28;20256;-38
2023/01/30 06:19:20;;;;;;;9.97;6.57;;;;;;;-2.18;70.52;97745.50;6256320;28;20703;-39
2023/01/30 06:22:22;;;;;;;10.97;7.33;;;;;;;-2.21;70.57;97739.81;6254972;28;20242;-38
2023/01/30 06:25:24;;;;;;;8.93;6.27;;;;;;;-2.11;69.95;97771.81;6255219;28;20235;-38
2023/01/30 06:28:26;;;;;;;10.07;6.50;;;;;;;-2.17;70.43;97770.66;6256034;28;20238;-38
2023/01/30 06:31:29;;;;;;;8.63;6.17;;;;;;;-1.95;70.54;97768.41;6255681;28;20803;-38
2023/01/30 06:34:31;;;;;;;10.10;6.27;;;;;;;-1.80;70.77;97742.47;6254889;28;20257;-38
2023/01/30 06:37:34;;;;;;;10.03;6.67;;;;;;;-1.46;68.31;97732.69;6255496;28;20227;-38
2023/01/30 06:40:37;;;;;;;10.20;6.43;;;;;;;-0.94;65.08;97732.25;6255180;28;20234;-37
2023/01/30 06:43:41;;;;;;;10.27;6.13;;;;;;;-0.67;63.49;97717.16;6250687;28;20670;-38
2023/01/30 06:46:44;;;;;;;10.17;6.07;;;;;;;-0.42;62.77;97704.78;6253258;28;20231;-38
2023/01/30 06:49:48;;;;;;;9.10;5.80;;;;;;;-0.30;61.69;97706.81;6255062;28;20688;-38
2023/01/30 06:52:54;;;;;;;9.70;5.87;;;;;;;-0.14;61.01;97694.66;6251942;28;20262;-38
2023/01/30 06:55:58;;;;;;;8.40;5.53;;;;;;;-0.03;60.70;97696.84;6255236;28;20255;-38
2023/01/30 06:59:00;;;;;;;7.30;5.10;;;;;;;0.07;59.94;97694.81;6255589;28;20219;-38
2023/01/30 07:02:03;;;;;;;7.37;4.93;;;;;;;0.20;59.48;97702.91;6247583;28;20329;-39
2023/01/30 07:05:06;;;;;;;6.40;4.90;;;;;;;0.26;60.70;97704.00;6251429;28;20877;-38
2023/01/30 07:08:10;;;;;;;8.40;5.20;;;;;;;0.10;61.98;97659.59;6254642;28;20308;-38
2023/01/30 07:11:13;;;;;;;7.90;5.07;;;;;;;0.33;61.33;97717.22;6257089;28;20249;-38
2023/01/30 07:14:15;;;;;;;6.47;4.67;;;;;;;0.40;59.46;97710.28;6257193;28;20242;-38
2023/01/30 07:17:21;;;;;;;6.73;5.07;;;;;;;0.55;57.98;97713.75;6258573;28;20309;-37
2023/01/30 07:20:23;;;;;;;7.90;4.90;;;;;;;0.61;56.51;97707.00;6247313;28;20225;-38
2023/01/30 07:23:25;;;;;;;6.40;4.63;;;;;;;0.60;56.25;97710.63;6245461;28;20215;-38
2023/01/30 07:26:29;;;;;;;6.97;4.43;;;;;;;0.69;53.79;97709.53;6254550;28;20595;-38
2023/01/30 07:29:33;;;;;;;7.23;5.27;;;;;;;0.88;53.61;97703.75;6249274;28;20223;-38
2023/01/30 07:32:35;;;;;;;7.53;4.53;;;;;;;0.89;54.46;97707.22;6253011;28;20234;-38
2023/01/30 07:35:38;;;;;;;7.03;4.83;;;;;;;1.11;53.44;97716.00;6251298;28;20270;-38
2023/01/30 07:38:40;;;;;;;5.30;4.13;;;;;;;1.20;53.52;97730.66;6247756;28;20482;-38
2023/01/30 07:41:43;;;;;;;6.50;4.10;;;;;;;1.29;54.22;97733.00;6252917;28;20346;-37
2023/01/30 07:44:45;;;;;;;5.27;3.90;;;;;;;1.46;54.67;97732.81;6252229;28;20251;-38
2023/01/30 07:47:47;;;;;;;6.60;4.80;;;;;;;1.58;55.06;97739.25;6254796;28;20323;-37
2023/01/30 07:50:49;;;;;;;6.70;4.97;;;;;;;1.73;53.14;97747.09;6253663;28;20303;-37
2023/01/30 07:53:51;;;;;;;7.80;5.27;;;;;;;1.64;52.92;97735.88;6252822;28;20776;-37
2023/01/30 07:56:54;;;;;;;7.40;5.13;;;;;;;1.70;53.03;97722.00;6247058;28;20232;-37
2023/01/30 07:59:56;;;;;;;8.73;6.00;;;;;;;1.81;52.69;97718.06;6253014;28;20225;-37
2023/01/30 08:02:58;;;;;;;8.70;5.83;;;;;;;1.66;52.08;97712.06;6251017;28;20226;-38
2023/01/30 08:06:01;;;;;;;8.50;6.03;;;;;;;1.62;52.48;97700.28;6252704;28;20716;-37
2023/01/30 08:09:05;;;;;;;7.87;5.50;;;;;;;1.75;53.29;97710.94;6250883;28;20347;-37
2023/01/30 08:12:07;;;;;;;9.30;6.27;;;;;;;1.79;52.69;97710.41;6246376;28;20439;-38
2023/01/30 08:15:10;;;;;;;9.00;6.43;;;;;;;1.74;52.79;97693.56;6253571;28;20229;-37
2023/01/30 08:18:12;;;;;;;10.37;6.47;;;;;;;1.63;52.21;97701.94;6249546;28;21859;-37
2023/01/30 08:21:17;;;;;;;9.63;6.47;;;;;;;1.65;52.34;97684.16;6249221;28;20649;-38
2023/01/30 08:24:19;;;;;;;6.97;5.13;;;;;;;1.70;52.21;97682.63;6253826;28;20212;-38
2023/01/30 08:27:23;;;;;;;9.73;6.00;;;;;;;1.84;53.38;97685.41;6253265;28;20234;-38
2023/01/30 08:30:27;;;;;;;8.67;5.43;;;;;;;1.96;52.19;97673.38;6244330;28;20230;-38
2023/01/30 08:33:31;;;;;;;8.97;5.97;;;;;;;2.07;52.02;97680.78;6249314;28;20699;-38
2023/01/30 08:36:35;;;;;;;7.40;5.27;;;;;;;2.06;51.23;97668.63;6253601;28;20602;-38
2023/01/30 08:39:37;;;;;;;7.43;5.13;;;;;;;2.19;51.76;97674.00;6246900;28;20239;-38
2023/01/30 08:42:42;;;;;;;8.47;5.37;;;;;;;2.51;50.08;97662.16;6249627;28;20318;-38
2023/01/30 08:45:45;;;;;;;8.27;5.07;;;;;;;2.99;49.31;97651.72;6250101;28;20222;-37
2023/01/30 08:48:47;;;;;;;7.23;5.47;;;;;;;2.95;50.43;97628.63;6249491;28;20621;-37
2023/01/30 08:51:54;;;;;;;8.03;4.97;;;;;;;3.07;49.25;97621.81;6253233;28;20238;-37
2023/01/30 08:54:56;;;;;;;6.27;4.77;;;;;;;3.12;47.24;97601.00;6253031;28;20311;-38
2023/01/30 08:57:59;;;;;;;6.83;4.83;;;;;;;2.94;47.10;97582.28;6252791;28;20242;-38
2023/01/30 09:01:07;;;;;;;8.60;4.97;;;;;;;3.14;46.33;97627.91;6251491;28;20233;-37
2023/01/30 09:04:12;;;;;;;6.70;4.47;;;;;;;3.20;46.24;97603.47;6249121;28;20773;-38
2023/01/30 09:07:15;;;;;;;7.33;4.47;;;;;;;3.09;45.72;97617.97;6261412;28;20944;-37
2023/01/30 09:10:18;;;;;;;4.73;3.73;;;;;;;3.18;47.28;97610.72;6254382;28;20238;-37
2023/01/30 09:13:23;;;;;;;5.40;3.93;;;;;;;3.30;45.78;97619.69;6257055;28;20600;-38
2023/01/30 09:16:26;;;;;;;4.40;3.27;;;;;;;3.32;45.49;97612.41;6257419;28;20318;-38
2023/01/30 09:19:28;;;;;;;6.00;3.83;;;;;;;3.39;45.86;97620.31;6252943;28;20241;-37
2023/01/30 09:22:31;;;;;;;4.53;3.13;;;;;;;3.38;45.83;97583.66;6254818;28;20262;-37
2023/01/30 09:25:36;;;;;;;5.30;3.60;;;;;;;3.56;44.17;97607.63;6257121;28;20226;-38
2023/01/30 09:28:39;;;;;;;4.90;3.30;;;;;;;3.58;44.32;97585.34;6255138;28;20284;-38
2023/01/30 09:31:41;;;;;;;5.40;3.50;;;;;;;3.52;44.80;97562.44;6256972;28;20235;-38
2023/01/30 09:34:43;;;;;;;6.17;4.17;;;;;;;3.58;44.40;97579.25;6251325;28;20308;-38
2023/01/30 09:37:50;;;;;;;5.53;3.33;;;;;;;3.55;44.37;97567.31;6252566;28;20586;-38
2023/01/30 09:40:58;;;;;;;5.13;3.53;;;;;;;3.53;45.16;97569.31;6254672;28;20223;-38
2023/01/30 09:44:29;;;;;;;5.10;3.53;;;;;;;3.27;45.12;97549.00;6252275;28;20704;-38
2023/01/30 09:48:02;;;;;;;4.83;3.30;;;;;;;3.32;45.79;97574.75;6254900;28;20696;-38
2023/01/30 09:51:27;;;;;;;4.27;3.07;;;;;;;3.61;44.86;97573.59;6256312;28;20349;-38
2023/01/30 09:54:36;;;;;;;4.37;3.30;;;;;;;4.02;44.19;97562.06;6247765;28;20238;-38
2023/01/30 09:57:40;;;;;;;4.27;3.30;;;;;;;4.64;44.34;97548.41;6257813;28;20370;-38
2023/01/30 10:00:45;;;;;;;5.47;3.50;;;;;;;5.55;41.69;97555.31;6256133;28;20710;-38
2023/01/30 10:04:17;;;;;;;5.00;3.40;;;;;;;6.10;40.59;97531.78;6254672;28;20572;-38
2023/01/30 10:07:37;;;;;;;4.20;3.10;;;;;;;6.97;39.29;97499.94;6253326;28;20243;-37
2023/01/30 10:10:47;;;;;;;4.40;2.87;;;;;;;9.20;35.46;97524.81;6252125;28;20599;-38
2023/01/30 10:14:20;;;;;;;3.90;2.80;;;;;;;9.93;34.71;97482.47;6253215;28;20263;-38
2023/01/30 10:17:41;;;;;;;3.90;2.93;;;;;;;9.81;33.77;97482.56;6253691;28;20705;-38
2023/01/30 10:20:53;;;;;;;3.33;2.50;;;;;;;10.12;33.65;97467.84;6229378;28;20248;-37
2023/01/30 10:24:10;;;;;;;3.93;2.57;;;;;;;9.59;34.39;97471.81;6255919;28;20231;-38
2023/01/30 10:27:16;;;;;;;3.00;2.30;;;;;;;9.86;35.63;97481.84;6255559;28;20226;-38
2023/01/30 10:30:19;;;;;;;2.57;2.30;;;;;;;9.63;36.09;97453.50;6251491;28;20238;-38
2023/01/30 10:33:29;;;;;;;3.47;2.20;;;;;;;8.87;38.14;97503.44;6253486;28;20228;-38
2023/01/30 10:36:39;;;;;;;3.70;2.20;;;;;;;7.62;40.43;97491.28;6248919;28;20381;-38
2023/01/30 10:39:55;;;;;;;2.90;2.20;;;;;;;6.75;42.92;97489.00;6252367;28;20298;-38
2023/01/30 10:43:24;;;;;;;3.43;2.10;;;;;;;6.54;43.13;97473.56;6252991;28;20246;-38
2023/01/30 10:46:39;;;;;;;2.40;2.20;;;;;;;6.28;43.96;97470.16;6251233;28;20397;-38
2023/01/30 10:49:45;;;;;;;2.17;1.93;;;;;;;6.28;43.68;97462.22;6255192;28;20711;-37
2023/01/30 10:52:52;;;;;;;2.73;1.97;;;;;;;6.36;43.98;97456.66;6255703;28;20229;-38
2023/01/30 10:56:11;;;;;;;2.17;1.67;;;;;;;5.97;45.08;97446.50;6253065;28;20236;-38
2023/01/30 10:59:26;;;;;;;2.20;1.80;;;;;;;5.82;45.52;97466.09;6258027;28;20229;-38
2023/01/30 11:02:48;;;;;;;2.30;1.73;;;;;;;5.48;46.60;97458.66;6254409;28;20751;-38
2023/01/30 11:06:10;;;;;;;2.10;1.90;;;;;;;5.20;47.20;97437.91;6251262;28;20264;-37
2023/01/30 11:09:13;;;;;;;2.00;1.77;;;;;;;5.11;48.45;97426.78;6249294;28;20269;-37
2023/01/30 11:12:16;;;;;;;1.63;1.27;;;;;;;5.38;47.78;97430.06;6255968;28;20264;-37
2023/01/30 11:15:23;;;;;;;1.60;1.20;;;;;;;5.45;48.07;97404.41;6254908;28;20244;-37
2023/01/30 11:18:26;;;;;;;1.20;1.03;;;;;;;5.36;48.14;97393.28;6254604;28;20237;-37
2023/01/30 11:21:59;;;;;;;1.60;1.20;;;;;;;5.37;48.99;97379.06;6250393;28;20235;-38
2023/01/30 11:25:13;;;;;;;1.47;1.10;;;;;;;5.75;48.83;97401.91;6250882;28;20290;-37
2023/01/30 11:28:18;;;;;;;1.47;1.10;;;;;;;5.94;48.07;97392.19;6251356;28;20247;-38
2023/01/30 11:31:25;;;;;;;1.73;0.90;;;;;;;6.02;47.41;97385.81;6253702;28;20330;-37
2023/01/30 11:34:43;;;;;;;1.80;1.00;;;;;;;6.18;46.70;97388.69;6250370;28;20282;-37
2023/01/30 11:37:45;;;;;;;1.33;1.10;;;;;;;5.96;45.98;97374.28;6250445;28;20225;-38
2023/01/30 11:40:47;;;;;;;2.10;1.00;;;;;;;5.99;46.80;97375.69;6254291;28;20230;-38
2023/01/30 11:43:50;;;;;;;2.30;0.80;;;;;;;5.97;46.76;97352.13;6247596;28;20241;-38
2023/01/30 11:46:53;;;;;;;2.67;1.00;;;;;;;6.15;46.51;97348.63;6254335;28;20291;-38
2023/01/30 11:50:01;;;;;;;0.97;0.70;;;;;;;5.63;48.23;97321.75;6249406;28;20654;-38
2023/01/30 11:53:33;;;;;;;0.80;0.77;;;;;;;5.72;47.68;97315.13;6254557;28;20329;-38
2023/01/30 11:56:39;;;;;;;0.80;0.80;;;;;;;5.81;47.73;97311.19;6249295;28;20598;-37
2023/01/30 12:00:00;;;;;;;0.60;0.60;;;;;;;5.74;48.89;97278.72;6252996;28;20323;-37
2023/01/30 12:03:15;;;;;;;0.60;0.60;;;;;;;5.78;48.70;97282.53;6249119;28;20277;-37
2023/01/30 12:06:33;;;;;;;0.80;0.70;;;;;;;5.75;48.80;97301.47;6252965;28;20241;-38
2023/01/30 12:09:37;;;;;;;3.40;0.83;;;;;;;5.73;49.55;97279.75;6251144;28;20312;-38
2023/01/30 12:12:41;;;;;;;2.10;0.90;;;;;;;5.76;49.67;97276.66;6251293;28;20228;-39
2023/01/30 12:15:48;;;;;;;1.20;0.80;;;;;;;5.65;49.60;97254.41;6241507;28;20244;-39
2023/01/30 12:19:19;;;;;;;0.90;0.70;;;;;;;5.82;49.14;97256.47;6253115;28;20567;-38
2023/01/30 12:22:52;;;;;;;2.83;0.80;;;;;;;5.99;49.38;97254.84;6249201;28;20311;-38
2023/01/30 12:26:05;;;;;;;1.10;0.63;;;;;;;6.05;48.87;97263.72;6243586;28;20771;-38
2023/01/30 12:29:26;;;;;;;0.67;0.53;;;;;;;5.84;50.58;97249.94;6251859;28;21142;-39
2023/01/30 12:32:31;;;;;;;0.90;0.60;;;;;;;5.73;50.33;97261.25;6250355;28;20285;-38
2023/01/30 12:35:46;;;;;;;1.17;0.60;;;;;;;5.64;50.24;97236.94;6252825;28;20263;-38
2023/01/30 12:39:12;;;;;;;0.90;0.60;;;;;;;5.45;51.02;97232.69;6249379;28;20231;-38
2023/01/30 12:42:46;;;;;;;1.90;0.70;;;;;;;5.39;50.44;97225.66;6250611;28;20704;-38
2023/01/30 12:46:11;;;;;;;0.80;0.70;;;;;;;5.27;50.96;97246.72;6244895;28;20230;-38
2023/01/30 12:49:41;;;;;;;0.80;0.70;;;;;;;5.35;52.14;97248.25;6248488;28;20593;-37
2023/01/30 12:53:04;;;;;;;0.60;0.60;;;;;;;5.35;52.65;97251.69;6253805;28;20314;-38
2023/01/30 12:56:31;;;;;;;0.80;0.67;;;;;;;5.22;52.29;97243.91;6253045;28;20236;-37
2023/01/30 13:00:11;;;;;;;1.20;0.80;;;;;;;5.05;52.33;97234.94;6249217;28;20241;-38
2023/01/30 13:03:36;;;;;;;0.70;0.70;;;;;;;4.81;53.57;97247.91;6248816;28;20228;-38
2023/01/30 13:07:03;;;;;;;1.50;1.27;;;;;;;4.84;54.15;97270.44;6251331;28;20718;-37
2023/01/30 13:10:32;;;;;;;1.20;0.90;;;;;;;4.88;55.90;97277.72;6249185;28;20645;-37
2023/01/30 13:14:03;;;;;;;1.87;1.30;;;;;;;4.57;57.00;97283.00;6251457;28;20238;-37
2023/01/30 13:17:30;;;;;;;1.30;1.20;;;;;;;4.39;58.53;97289.00;6251959;28;20235;-38
2023/01/30 13:20:43;;;;;;;1.17;1.07;;;;;;;4.26;59.65;97289.06;6248608;28;20954;-38
2023/01/30 13:24:24;;;;;;;2.93;1.50;;;;;;;3.87;58.89;97299.56;6248542;28;20337;-37
2023/01/30 13:27:28;;;;;;;6.30;1.97;;;;;;;3.71;60.30;97309.78;6248811;28;20711;-38
2023/01/30 13:30:33;;;;;;;3.10;1.97;;;;;;;3.47;62.36;97298.09;6251262;28;20220;-38
2023/01/30 13:33:39;;;;;;;1.87;1.67;;;;;;;3.34;63.86;97293.63;6256239;28;20223;-38
2023/01/30 13:36:48;;;;;;;2.30;1.70;;;;;;;3.19;64.19;97304.38;6251668;28;20695;-37
2023/01/30 13:40:12;;;;;;;3.80;1.77;;;;;;;3.03;64.90;97318.78;6246429;28;20250;-38
2023/01/30 13:43:39;;;;;;;3.70;2.20;;;;;;;3.04;65.85;97316.94;6250350;28;20642;-37
2023/01/30 13:46:43;;;;;;;3.23;2.20;;;;;;;2.80;67.06;97316.53;6247167;28;20292;-37
2023/01/30 13:50:18;;;;;;;3.50;2.60;;;;;;;2.67;68.39;97334.94;6251312;28;20266;-37
2023/01/30 13:53:36;;;;;;;3.37;2.30;;;;;;;2.35;69.63;97299.69;6253318;28;20508;-38
2023/01/30 13:56:52;;;;;;;4.60;2.60;;;;;;;2.34;71.14;97337.50;6252825;28;20235;-38
2023/01/30 14:00:03;;;;;;;3.47;2.23;;;;;;;2.22;71.95;97312.81;6255781;28;20614;-38
2023/01/30 14:03:24;;;;;;;3.93;2.60;;;;;;;2.14;73.24;97324.28;6252792;28;20234;-38
2023/01/30 14:06:38;;;;;;;4.73;2.97;;;;;;;1.94;73.01;97299.75;6252529;28;20231;-38
2023/01/30 14:09:48;;;;;;;4.27;2.87;;;;;;;2.11;72.72;97327.28;6252937;28;20288;-37
2023/01/30 14:12:54;;;;;;;4.80;3.37;;;;;;;2.07;72.66;97344.47;6250652;28;20799;-38
2023/01/30 14:15:57;;;;;;;4.70;3.23;;;;;;;2.02;73.43;97337.19;6256036;28;20257;-38
2023/01/30 14:19:30;;;;;;;4.63;2.90;;;;;;;1.99;73.91;97313.13;6259352;28;20646;-38
2023/01/30 14:22:54;;;;;;;5.73;3.47;;;;;;;1.96;74.07;97295.09;6251977;28;20605;-37
2023/01/30 14:25:57;;;;;;;4.77;3.33;;;;;;;1.96;74.37;97300.38;6255159;28;20237;-38
2023/01/30 14:28:59;;;;;;;5.80;3.70;;;;;;;2.02;73.44;97268.03;6253709;28;20311;-38
2023/01/30 14:32:21;;;;;;;4.77;2.80;;;;;;;2.03;73.08;97267.88;6250431;28;20234;-38
2023/01/30 14:35:28;;;;;;;3.87;3.07;;;;;;;1.94;72.15;97229.66;6253039;28;20245;-38
2023/01/30 14:38:35;;;;;;;5.43;3.20;;;;;;;2.27;71.58;97248.13;6248911;28;20219;-38
2023/01/30 14:41:39;;;;;;;4.00;3.00;;;;;;;2.46;69.97;97240.44;6254504;28;20238;-38
2023/01/30 14:45:13;;;;;;;4.60;2.90;;;;;;;2.47;70.86;97240.25;6254934;28;20726;-38
2023/01/30 14:48:32;;;;;;;3.53;2.63;;;;;;;2.54;69.77;97250.78;6249493;28;20211;-38
2023/01/30 14:51:42;;;;;;;4.83;2.37;;;;;;;2.66;69.22;97261.50;6254250;28;20816;-39
2023/01/30 14:54:49;;;;;;;3.40;2.43;;;;;;;2.64;69.05;97255.63;6255417;28;20579;-39
2023/01/30 14:58:01;;;;;;;3.50;2.63;;;;;;;2.69;69.56;97266.34;6254984;28;20246;-38
2023/01/30 15:01:03;;;;;;;3.10;2.53;;;;;;;2.77;67.05;97282.75;6248322;28;20228;-38